createdAt,value
2022-09-12T00:01:21.897Z,4.50
2022-09-12T00:03:55.258Z,4.40
2022-09-12T00:06:24.741Z,4.38
2022-09-12T00:08:53.983Z,4.47
2022-09-12T00:11:20.471Z,4.30
2022-09-12T00:13:47.468Z,4.30
2022-09-12T00:16:19.353Z,4.13
2022-09-12T00:18:46.867Z,4.55
2022-09-12T00:21:14.816Z,4.15
2022-09-12T00:23:41.278Z,4.68
2022-09-12T00:26:08.476Z,4.32
2022-09-12T00:28:38.003Z,4.28
2022-09-12T00:31:06.995Z,4.57
2022-09-12T00:33:34.229Z,4.35
2022-09-12T00:36:05.450Z,4.47
2022-09-12T00:38:32.037Z,4.13
2022-09-12T00:41:01.408Z,4.20
2022-09-12T00:43:30.976Z,4.03
2022-09-12T00:45:58.191Z,4.35
2022-09-12T00:48:39.010Z,4.43
2022-09-12T00:51:05.695Z,4.13
2022-09-12T00:53:32.185Z,4.22
2022-09-12T00:55:59.016Z,4.57
2022-09-12T00:58:29.031Z,4.70
2022-09-12T01:00:59.763Z,4.32
2022-09-12T01:03:26.867Z,4.22
2022-09-12T01:06:16.185Z,4.40
2022-09-12T01:08:44.108Z,4.57
2022-09-12T01:11:11.863Z,4.90
2022-09-12T01:13:38.837Z,5.25
2022-09-12T01:16:06.698Z,4.90
2022-09-12T01:18:36.219Z,4.88
2022-09-12T01:21:34.756Z,4.75
2022-09-12T01:24:39.785Z,4.35
2022-09-12T01:27:30.784Z,4.07
2022-09-12T01:30:24.949Z,4.60
2022-09-12T01:33:13.196Z,4.00
2022-09-12T01:35:48.331Z,4.53
2022-09-12T01:38:30.236Z,4.15
2022-09-12T01:41:07.941Z,4.28
2022-09-12T01:43:45.810Z,4.05
2022-09-12T01:46:21.786Z,4.47
2022-09-12T01:49:03.832Z,4.28
2022-09-12T01:51:40.132Z,4.25
2022-09-12T01:54:13.771Z,3.92
2022-09-12T01:56:41.625Z,4.20
2022-09-12T01:59:20.543Z,4.05
2022-09-12T02:01:55.832Z,4.38
2022-09-12T02:04:25.807Z,3.90
2022-09-12T02:07:03.127Z,4.20
2022-09-12T02:09:34.673Z,4.40
2022-09-12T02:12:01.951Z,4.05
2022-09-12T02:14:32.120Z,3.90
2022-09-12T02:17:29.106Z,4.20
2022-09-12T02:20:00.255Z,4.05
2022-09-12T02:22:27.837Z,3.80
2022-09-12T02:24:57.873Z,4.00
2022-09-12T02:27:34.095Z,3.85
2022-09-12T02:30:00.689Z,3.90
2022-09-12T02:32:32.551Z,3.55
2022-09-12T02:35:07.445Z,4.35
2022-09-12T02:37:51.653Z,4.20
2022-09-12T02:40:18.640Z,3.70
2022-09-12T02:42:45.417Z,3.70
2022-09-12T02:45:12.637Z,3.53
2022-09-12T02:47:44.303Z,3.90
2022-09-12T02:50:11.017Z,3.75
2022-09-12T02:52:37.530Z,4.00
2022-09-12T02:55:05.571Z,4.20
2022-09-12T02:57:32.169Z,3.83
2022-09-12T03:00:00.742Z,4.00
2022-09-12T03:02:53.496Z,3.95
2022-09-12T03:05:24.927Z,4.03
2022-09-12T03:08:10.138Z,3.90
2022-09-12T03:10:45.774Z,4.15
2022-09-12T03:13:24.923Z,3.83
2022-09-12T03:16:23.049Z,3.80
2022-09-12T03:18:52.019Z,4.20
2022-09-12T03:21:26.377Z,3.58
2022-09-12T03:24:20.941Z,3.92
2022-09-12T03:27:13.976Z,3.83
2022-09-12T03:29:42.267Z,4.10
2022-09-12T03:32:08.883Z,3.72
2022-09-12T03:34:35.433Z,3.70
2022-09-12T03:37:02.210Z,4.22
2022-09-12T03:39:28.785Z,4.05
2022-09-12T03:41:56.102Z,4.32
2022-09-12T03:44:23.756Z,3.90
2022-09-12T03:46:50.728Z,4.53
2022-09-12T03:49:17.661Z,4.18
2022-09-12T03:51:44.319Z,4.20
2022-09-12T03:54:10.901Z,4.47
2022-09-12T03:56:40.211Z,3.78
2022-09-12T03:59:06.866Z,3.83
2022-09-12T04:01:33.900Z,3.95
2022-09-12T04:04:00.478Z,3.67
2022-09-12T04:06:26.977Z,4.03
2022-09-12T04:08:54.539Z,3.88
2022-09-12T04:11:21.827Z,4.10
2022-09-12T04:13:49.074Z,3.53
2022-09-12T04:16:18.577Z,4.57
2022-09-12T04:18:45.737Z,3.85
2022-09-12T04:21:18.286Z,3.92
2022-09-12T04:23:45.019Z,4.18
2022-09-12T04:26:13.748Z,4.30
2022-09-12T04:28:41.243Z,5.28
2022-09-12T04:31:15.537Z,4.80
2022-09-12T04:33:45.628Z,4.65
2022-09-12T04:36:16.720Z,4.60
2022-09-12T04:38:45.123Z,4.00
2022-09-12T04:41:17.940Z,4.40
2022-09-12T04:43:46.542Z,4.22
2022-09-12T04:46:15.334Z,4.82
2022-09-12T04:48:42.736Z,4.63
2022-09-12T04:51:25.946Z,4.53
2022-09-12T04:53:54.036Z,4.32
2022-09-12T04:56:21.329Z,4.32
2022-09-12T04:58:49.666Z,4.47
2022-09-12T05:01:18.601Z,4.18
2022-09-12T05:03:49.457Z,3.65
2022-09-12T05:06:21.831Z,3.92
2022-09-12T05:08:48.427Z,3.85
2022-09-12T05:11:21.531Z,3.92
2022-09-12T05:13:51.064Z,4.05
2022-09-12T05:16:18.201Z,4.07
2022-09-12T05:18:47.002Z,4.20
2022-09-12T05:21:18.881Z,4.40
2022-09-12T05:23:45.632Z,4.35
2022-09-12T05:26:16.397Z,4.38
2022-09-12T05:28:43.640Z,4.00
2022-09-12T05:31:18.972Z,3.97
2022-09-12T05:33:47.234Z,4.78
2022-09-12T05:36:19.711Z,6.90
2022-09-12T05:38:46.971Z,8.27
2022-09-12T05:41:24.199Z,6.13
2022-09-12T05:43:56.339Z,5.82
2022-09-12T05:46:25.793Z,5.72
2022-09-12T05:48:58.508Z,5.93
2022-09-12T05:51:28.162Z,6.25
2022-09-12T05:53:59.879Z,5.78
2022-09-12T05:56:30.794Z,5.72
2022-09-12T05:59:12.294Z,6.10
2022-09-12T06:01:39.160Z,6.00
2022-09-12T06:04:06.718Z,6.13
2022-09-12T06:06:36.929Z,5.55
2022-09-12T06:09:04.787Z,5.63
2022-09-12T06:11:33.785Z,5.70
2022-09-12T06:14:01.123Z,5.45
2022-09-12T06:16:30.732Z,5.63
2022-09-12T06:18:59.793Z,6.03
2022-09-12T06:21:27.076Z,5.60
2022-09-12T06:24:00.157Z,5.20
2022-09-12T06:26:27.729Z,5.53
2022-09-12T06:28:55.575Z,5.45
2022-09-12T06:31:29.019Z,5.40
2022-09-12T06:33:57.323Z,5.72
2022-09-12T06:36:27.416Z,5.22
2022-09-12T06:39:00.870Z,6.30
2022-09-12T06:41:28.141Z,7.00
2022-09-12T06:43:55.200Z,6.75
2022-09-12T06:46:21.859Z,6.35
2022-09-12T06:48:48.806Z,6.60
2022-09-12T06:51:17.708Z,6.45
2022-09-12T06:53:45.313Z,7.20
2022-09-12T06:56:15.789Z,6.82
2022-09-12T06:58:43.182Z,6.93
2022-09-12T07:01:17.617Z,6.32
2022-09-12T07:03:51.655Z,6.22
2022-09-12T07:06:20.257Z,6.28
2022-09-12T07:08:47.842Z,6.80
2022-09-12T07:11:17.195Z,6.35
2022-09-12T07:13:50.554Z,6.53
2022-09-12T07:16:19.672Z,6.72
2022-09-12T07:18:56.179Z,6.65
2022-09-12T07:21:22.928Z,6.65
2022-09-12T07:23:49.820Z,6.30
2022-09-12T07:26:16.689Z,7.05
2022-09-12T07:28:43.909Z,6.20
2022-09-12T07:31:11.837Z,6.60
2022-09-12T07:33:38.875Z,6.18
2022-09-12T07:36:07.338Z,6.10
2022-09-12T07:38:33.833Z,5.68
2022-09-12T07:41:01.194Z,6.00
2022-09-12T07:43:27.817Z,5.60
2022-09-12T07:46:03.049Z,5.25
2022-09-12T07:48:29.694Z,5.40
2022-09-12T07:51:04.687Z,5.45
2022-09-12T07:53:34.061Z,5.88
2022-09-12T07:56:00.683Z,5.82
2022-09-12T07:58:27.442Z,6.20
2022-09-12T08:00:54.106Z,5.70
2022-09-12T08:03:20.755Z,6.20
2022-09-12T08:05:47.507Z,6.53
2022-09-12T08:08:14.132Z,6.95
2022-09-12T08:10:40.729Z,7.00
2022-09-12T08:13:11.223Z,7.10
2022-09-12T08:15:37.868Z,8.23
2022-09-12T08:18:04.619Z,7.88
2022-09-12T08:20:31.396Z,7.38
2022-09-12T08:22:59.527Z,6.65
2022-09-12T08:25:26.110Z,7.35
2022-09-12T08:27:52.643Z,6.22
2022-09-12T08:30:19.335Z,6.55
2022-09-12T08:32:45.923Z,5.82
2022-09-12T08:35:12.791Z,5.95
2022-09-12T08:37:39.448Z,5.95
2022-09-12T08:40:08.441Z,5.85
2022-09-12T08:43:10.416Z,5.50
2022-09-12T08:45:43.316Z,4.80
2022-09-12T08:48:16.981Z,4.60
2022-09-12T08:50:49.972Z,5.10
2022-09-12T08:53:21.853Z,4.78
2022-09-12T08:55:57.906Z,4.97
2022-09-12T08:58:25.927Z,4.38
2022-09-12T09:01:07.595Z,4.57
2022-09-12T09:04:02.225Z,3.95
2022-09-12T09:06:47.203Z,3.67
2022-09-12T09:09:51.595Z,4.32
2022-09-12T09:12:24.298Z,4.00
2022-09-12T09:15:15.388Z,4.13
2022-09-12T09:17:43.844Z,3.90
2022-09-12T09:20:31.615Z,4.60
2022-09-12T09:23:15.369Z,3.97
2022-09-12T09:26:05.581Z,3.70
2022-09-12T09:28:50.008Z,3.80
2022-09-12T09:31:18.988Z,3.63
2022-09-12T09:33:48.304Z,4.47
2022-09-12T09:36:44.116Z,3.75
2022-09-12T09:39:29.458Z,4.25
2022-09-12T09:42:20.361Z,3.58
2022-09-12T09:44:49.080Z,4.03
2022-09-12T09:47:17.016Z,4.13
2022-09-12T09:49:43.677Z,2.88
2022-09-12T09:52:12.938Z,3.67
2022-09-12T09:54:41.187Z,3.10
2022-09-12T09:57:37.294Z,3.10
2022-09-12T10:00:32.116Z,3.38
2022-09-12T10:03:14.326Z,3.95
2022-09-12T10:05:54.247Z,3.90
2022-09-12T10:08:31.326Z,3.63
2022-09-12T10:11:04.524Z,7.45
2022-09-12T10:13:36.162Z,3.55
2022-09-12T10:16:06.713Z,4.20
2022-09-12T10:18:35.781Z,3.58
2022-09-12T10:21:04.791Z,3.70
2022-09-12T10:23:41.107Z,3.30
2022-09-12T10:26:15.982Z,3.22
2022-09-12T10:28:47.149Z,2.92
2022-09-12T10:31:28.942Z,3.58
2022-09-12T10:34:00.131Z,2.90
2022-09-12T10:36:40.084Z,2.40
2022-09-12T10:39:17.747Z,2.38
2022-09-12T10:41:44.889Z,2.50
2022-09-12T10:44:32.761Z,3.17
2022-09-12T10:47:01.049Z,2.70
2022-09-12T10:49:31.891Z,2.38
2022-09-12T10:52:21.925Z,2.50
2022-09-12T10:54:48.535Z,2.30
2022-09-12T10:57:44.241Z,2.53
2022-09-12T11:00:17.570Z,2.40
2022-09-12T11:02:56.161Z,2.95
2022-09-12T11:05:32.131Z,2.70
2022-09-12T11:08:22.180Z,2.65
2022-09-12T11:11:02.872Z,1.98
2022-09-12T11:13:49.010Z,2.20
2022-09-12T11:16:22.939Z,1.65
2022-09-12T11:18:49.568Z,1.75
2022-09-12T11:21:39.466Z,2.35
2022-09-12T11:24:18.861Z,1.90
2022-09-12T11:26:54.478Z,2.30
2022-09-12T11:29:27.121Z,2.20
2022-09-12T11:32:29.117Z,1.95
2022-09-12T11:35:17.800Z,1.60
2022-09-12T11:38:21.986Z,2.08
2022-09-12T11:41:04.742Z,1.92
2022-09-12T11:43:41.844Z,1.67
2022-09-12T11:46:37.517Z,1.65
2022-09-12T11:49:13.445Z,2.00
2022-09-12T11:52:06.454Z,2.30
2022-09-12T11:54:40.681Z,1.90
2022-09-12T11:57:25.656Z,1.70
2022-09-12T11:59:57.184Z,1.92
2022-09-12T12:02:29.762Z,1.73
2022-09-12T12:05:29.961Z,1.65
2022-09-12T12:07:59.061Z,1.88
2022-09-12T12:10:44.294Z,2.00
2022-09-12T12:13:21.834Z,1.42
2022-09-12T12:15:51.359Z,1.42
2022-09-12T12:18:22.214Z,1.17
2022-09-12T12:20:54.392Z,1.23
2022-09-12T12:23:32.486Z,1.45
2022-09-12T12:26:03.616Z,1.80
2022-09-12T12:28:42.476Z,3.80
2022-09-12T12:31:10.533Z,2.42
2022-09-12T12:33:37.047Z,2.33
2022-09-12T12:36:07.403Z,1.98
2022-09-12T12:38:34.762Z,1.77
2022-09-12T12:41:36.518Z,1.55
2022-09-12T12:44:41.184Z,1.50
2022-09-12T12:47:22.155Z,1.40
2022-09-12T12:50:27.419Z,1.23
2022-09-12T12:52:58.407Z,5.38
2022-09-12T12:55:27.934Z,1.52
2022-09-12T12:57:56.415Z,2.15
2022-09-12T13:00:48.796Z,2.00
2022-09-12T13:03:28.016Z,2.20
2022-09-12T13:06:01.903Z,2.03
2022-09-12T13:08:31.761Z,7.55
2022-09-12T13:11:08.369Z,1.67
2022-09-12T13:13:50.796Z,1.33
2022-09-12T13:16:40.829Z,1.70
2022-09-12T13:19:18.372Z,2.17
2022-09-12T13:22:08.762Z,14.77
2022-09-12T13:24:44.681Z,2.42
2022-09-12T13:27:31.458Z,3.60
2022-09-12T13:30:15.231Z,13.43
2022-09-12T13:32:42.785Z,10.48
2022-09-12T13:35:16.595Z,1.80
2022-09-12T13:37:58.819Z,2.88
2022-09-12T13:40:33.753Z,5.50
2022-09-12T13:43:25.402Z,1.58
2022-09-12T13:45:52.773Z,2.83
2022-09-12T13:48:24.383Z,1.40
2022-09-12T13:50:58.780Z,1.77
2022-09-12T13:53:27.874Z,4.63
2022-09-12T13:56:01.379Z,1.88
2022-09-12T13:58:33.553Z,5.35
2022-09-12T14:01:12.862Z,3.83
2022-09-12T14:04:15.287Z,5.45
2022-09-12T14:06:46.560Z,7.55
2022-09-12T14:10:10.901Z,1.52
2022-09-12T14:12:40.165Z,1.98
2022-09-12T14:15:15.160Z,10.70
2022-09-12T14:17:52.552Z,2.58
2022-09-12T14:20:21.169Z,1.20
2022-09-12T14:22:57.144Z,1.25
2022-09-12T14:25:33.522Z,1.38
2022-09-12T14:28:06.312Z,20.15
2022-09-12T14:30:37.115Z,1.30
2022-09-12T14:33:10.019Z,1.05
2022-09-12T14:35:43.543Z,1.48
2022-09-12T14:38:22.380Z,1.30
2022-09-12T14:40:56.951Z,0.95
2022-09-12T14:43:34.802Z,1.10
2022-09-12T14:46:03.991Z,0.75
2022-09-12T14:48:34.430Z,0.80
2022-09-12T14:51:01.423Z,0.90
2022-09-12T14:53:30.980Z,0.85
2022-09-12T14:56:02.355Z,1.27
2022-09-12T14:58:29.069Z,0.98
2022-09-12T15:01:01.886Z,0.80
2022-09-12T15:03:29.851Z,1.20
2022-09-12T15:05:56.606Z,0.93
2022-09-12T15:08:23.245Z,0.90
2022-09-12T15:10:49.791Z,1.00
2022-09-12T15:13:25.737Z,1.15
2022-09-12T15:15:54.041Z,1.25
2022-09-12T15:18:22.076Z,1.27
2022-09-12T15:20:52.151Z,1.30
2022-09-12T15:23:22.888Z,0.90
2022-09-12T15:25:50.175Z,1.00
2022-09-12T15:28:21.798Z,0.90
2022-09-12T15:30:50.494Z,1.20
2022-09-12T15:33:22.894Z,1.10
2022-09-12T15:35:52.591Z,1.10
2022-09-12T15:38:26.148Z,1.00
2022-09-12T15:40:54.214Z,1.00
2022-09-12T15:43:22.115Z,1.10
2022-09-12T15:45:52.360Z,1.20
2022-09-12T15:48:20.587Z,1.23
2022-09-12T15:50:47.195Z,1.25
2022-09-12T15:53:16.132Z,1.30
2022-09-12T15:55:43.607Z,1.13
2022-09-12T15:58:10.690Z,1.25
2022-09-12T16:00:37.255Z,1.25
2022-09-12T16:03:04.045Z,1.48
2022-09-12T16:05:30.609Z,1.35
2022-09-12T16:07:58.786Z,1.27
2022-09-12T16:10:28.330Z,1.38
2022-09-12T16:12:54.880Z,1.30
2022-09-12T16:15:23.518Z,0.80
2022-09-12T16:17:50.578Z,1.27
2022-09-12T16:20:17.314Z,1.25
2022-09-12T16:22:43.811Z,1.42
2022-09-12T16:25:10.417Z,1.55
2022-09-12T16:27:37.459Z,1.50
2022-09-12T16:30:06.209Z,2.63
2022-09-12T16:32:33.069Z,4.15
2022-09-12T16:34:59.832Z,3.00
2022-09-12T16:37:26.334Z,5.97
2022-09-12T16:39:53.210Z,4.50
2022-09-12T16:42:21.288Z,3.00
2022-09-12T16:44:49.494Z,2.30
2022-09-12T16:47:16.401Z,2.92
2022-09-12T16:49:43.107Z,1.73
2022-09-12T16:52:10.293Z,6.47
2022-09-12T16:54:36.933Z,10.07
2022-09-12T16:57:05.250Z,5.60
2022-09-12T16:59:32.208Z,2.17
2022-09-12T17:02:04.453Z,3.72
2022-09-12T17:04:30.915Z,5.22
2022-09-12T17:06:59.423Z,5.65
2022-09-12T17:09:27.345Z,9.38
2022-09-12T17:11:53.998Z,5.10
2022-09-12T17:14:20.892Z,6.50
2022-09-12T17:16:51.708Z,2.22
2022-09-12T17:19:26.515Z,2.47
2022-09-12T17:21:53.231Z,2.97
2022-09-12T17:24:22.915Z,2.55
2022-09-12T17:26:50.391Z,2.90
2022-09-12T17:29:17.220Z,1.60
2022-09-12T17:31:44.505Z,2.17
2022-09-12T17:34:14.517Z,2.97
2022-09-12T17:36:44.272Z,2.90
2022-09-12T17:39:12.198Z,2.05
2022-09-12T17:41:39.303Z,1.60
2022-09-12T17:44:07.695Z,1.35
2022-09-12T17:46:36.718Z,1.23
2022-09-12T17:49:06.436Z,1.13
2022-09-12T17:51:33.472Z,1.15
2022-09-12T17:54:02.216Z,1.52
2022-09-12T17:56:30.739Z,1.20
2022-09-12T17:59:04.040Z,1.20
2022-09-12T18:01:49.873Z,1.50
2022-09-12T18:04:21.036Z,1.33
2022-09-12T18:06:50.434Z,1.30
2022-09-12T18:09:24.761Z,1.42
2022-09-12T18:11:51.861Z,1.90
2022-09-12T18:14:18.582Z,1.25
2022-09-12T18:16:46.016Z,1.60
2022-09-12T18:19:13.210Z,1.38
2022-09-12T18:21:39.908Z,1.50
2022-09-12T18:24:06.791Z,1.20
2022-09-12T18:26:33.846Z,1.38
2022-09-12T18:29:00.494Z,1.60
2022-09-12T18:31:29.984Z,1.25
2022-09-12T18:33:57.645Z,1.60
2022-09-12T18:36:24.456Z,1.45
2022-09-12T18:38:50.964Z,1.60
2022-09-12T18:41:21.818Z,1.58
2022-09-12T18:43:49.030Z,1.55
2022-09-12T18:46:18.440Z,1.42
2022-09-12T18:48:48.709Z,1.42
2022-09-12T18:51:16.336Z,1.80
2022-09-12T18:53:43.111Z,1.75
2022-09-12T18:56:14.103Z,1.30
2022-09-12T18:58:42.623Z,1.60
2022-09-12T19:01:16.456Z,1.67
2022-09-12T19:03:43.280Z,2.00
2022-09-12T19:06:13.711Z,1.60
2022-09-12T19:08:47.505Z,1.75
2022-09-12T19:11:14.120Z,1.60
2022-09-12T19:13:46.974Z,1.75
2022-09-12T19:16:22.028Z,1.60
2022-09-12T19:18:49.814Z,1.65
2022-09-12T19:21:22.633Z,1.80
2022-09-12T19:23:57.758Z,1.92
2022-09-12T19:26:24.617Z,1.70
2022-09-12T19:28:51.226Z,2.10
2022-09-12T19:31:21.936Z,1.70
2022-09-12T19:33:49.442Z,2.03
2022-09-12T19:36:41.276Z,1.63
2022-09-12T19:39:06.404Z,1.67
2022-09-12T19:41:33.493Z,1.85
2022-09-12T19:44:00.442Z,1.70
2022-09-12T19:46:27.931Z,1.63
2022-09-12T19:48:54.957Z,1.88
2022-09-12T19:51:25.258Z,2.05
2022-09-12T19:53:52.549Z,1.88
2022-09-12T19:56:22.310Z,2.00
2022-09-12T19:58:55.160Z,1.90
2022-09-12T20:01:29.843Z,1.85
2022-09-12T20:03:57.747Z,2.40
2022-09-12T20:06:24.800Z,1.55
2022-09-12T20:08:51.523Z,2.40
2022-09-12T20:11:20.798Z,1.90
2022-09-12T20:13:47.859Z,2.17
2022-09-12T20:16:21.367Z,2.55
2022-09-12T20:18:52.265Z,2.53
2022-09-12T20:21:20.336Z,2.70
2022-09-12T20:23:47.262Z,2.70
2022-09-12T20:26:14.080Z,3.30
2022-09-12T20:28:41.909Z,3.30
2022-09-12T20:31:15.095Z,3.20
2022-09-12T20:33:42.258Z,3.50
2022-09-12T20:36:14.750Z,3.10
2022-09-12T20:38:42.754Z,3.45
2022-09-12T20:41:10.844Z,2.88
2022-09-12T20:43:38.701Z,3.58
2022-09-12T20:46:17.512Z,3.17
2022-09-12T20:48:47.088Z,3.03
2022-09-12T20:51:14.439Z,3.45
2022-09-12T20:53:40.938Z,3.25
2022-09-12T20:56:07.672Z,3.30
2022-09-12T20:58:34.694Z,3.47
2022-09-12T21:01:07.815Z,3.10
2022-09-12T21:03:42.071Z,3.15
2022-09-12T21:06:09.642Z,2.20
2022-09-12T21:08:37.144Z,2.53
2022-09-12T21:11:04.611Z,2.05
2022-09-12T21:13:31.252Z,2.50
2022-09-12T21:16:24.371Z,2.03
2022-09-12T21:18:58.673Z,2.17
2022-09-12T21:21:26.186Z,2.20
2022-09-12T21:24:04.717Z,2.10
2022-09-12T21:26:31.466Z,2.40
2022-09-12T21:29:01.060Z,2.17
2022-09-12T21:31:29.610Z,2.35
2022-09-12T21:33:56.318Z,2.20
2022-09-12T21:36:25.456Z,2.40
2022-09-12T21:38:51.971Z,2.20
2022-09-12T21:41:18.615Z,2.47
2022-09-12T21:43:45.373Z,2.08
2022-09-12T21:46:13.519Z,2.58
2022-09-12T21:48:40.343Z,2.05
2022-09-12T21:51:07.052Z,2.22
2022-09-12T21:53:33.564Z,2.40
2022-09-12T21:56:08.108Z,2.30
2022-09-12T21:58:35.295Z,2.55
2022-09-12T22:01:02.083Z,2.55
2022-09-12T22:03:29.647Z,2.35
2022-09-12T22:06:01.585Z,2.28
2022-09-12T22:08:29.545Z,2.50
2022-09-12T22:11:02.044Z,2.20
2022-09-12T22:13:32.304Z,2.50
2022-09-12T22:16:03.432Z,2.60
2022-09-12T22:18:32.326Z,2.60
2022-09-12T22:21:03.868Z,2.30
2022-09-12T22:23:48.992Z,2.55
2022-09-12T22:26:16.008Z,2.50
2022-09-12T22:28:42.986Z,2.38
2022-09-12T22:31:13.122Z,2.40
2022-09-12T22:33:39.932Z,2.55
2022-09-12T22:36:07.165Z,2.05
2022-09-12T22:38:33.826Z,2.42
2022-09-12T22:41:06.023Z,2.67
2022-09-12T22:43:33.728Z,2.53
2022-09-12T22:46:00.383Z,2.40
2022-09-12T22:48:27.133Z,2.30
2022-09-12T22:50:53.853Z,2.70
2022-09-12T22:53:20.393Z,2.20
2022-09-12T22:55:47.502Z,2.60
2022-09-12T22:58:14.936Z,2.65
2022-09-12T23:00:48.158Z,3.10
2022-09-12T23:03:17.259Z,2.50
2022-09-12T23:05:44.920Z,2.75
2022-09-12T23:08:12.134Z,2.60
2022-09-12T23:10:41.803Z,2.50
2022-09-12T23:13:08.408Z,2.47
2022-09-12T23:15:34.907Z,2.60
2022-09-12T23:18:01.537Z,2.53
2022-09-12T23:20:28.502Z,2.30
2022-09-12T23:22:55.020Z,2.47
2022-09-12T23:25:26.310Z,2.50
2022-09-12T23:27:53.024Z,2.50
2022-09-12T23:30:21.354Z,2.63
2022-09-12T23:32:50.889Z,2.42
2022-09-12T23:35:20.692Z,2.40
2022-09-12T23:37:47.535Z,2.55
2022-09-12T23:40:14.363Z,2.45
2022-09-12T23:42:40.983Z,2.58
2022-09-12T23:45:08.142Z,2.40
2022-09-12T23:47:34.731Z,2.53
2022-09-12T23:50:01.256Z,2.65
2022-09-12T23:52:27.943Z,2.83
2022-09-12T23:54:54.545Z,2.30
2022-09-12T23:57:21.065Z,2.40
2022-09-12T23:59:47.639Z,2.65
